createdAt,value
2024-04-18T00:05:02.554Z,9.42
2024-04-18T00:10:20.687Z,9.39
2024-04-18T00:15:40.161Z,9.37
2024-04-18T00:21:00.162Z,9.35
2024-04-18T00:26:19.133Z,9.35
2024-04-18T00:36:58.173Z,9.3
2024-04-18T00:43:32.385Z,9.27
2024-04-18T00:47:47.098Z,9.26
2024-04-18T00:52:55.797Z,9.22
2024-04-18T00:58:15.395Z,9.22
2024-04-18T01:03:33.622Z,9.16
2024-04-18T01:08:53.064Z,9.16
2024-04-18T01:14:12.194Z,9.12
2024-04-18T01:19:31.784Z,9.12
2024-04-18T01:24:50.800Z,9.09
2024-04-18T01:30:10.306Z,9.09
2024-04-18T01:35:28.926Z,9.05
2024-04-18T01:40:49.265Z,9.03
2024-04-18T01:46:07.459Z,9.02
2024-04-18T01:51:27.476Z,9.02
2024-04-18T02:02:04.884Z,8.95
2024-04-18T02:07:25.402Z,8.92
2024-04-18T02:12:44.714Z,8.95
2024-04-18T02:18:03.906Z,8.92
2024-04-18T02:23:22.311Z,8.89
2024-04-18T02:28:41.711Z,8.91
2024-04-18T02:34:01.618Z,8.88
2024-04-18T02:39:21.624Z,8.85
2024-04-18T02:44:40.494Z,8.89
2024-04-18T02:49:59.323Z,8.88
2024-04-18T02:55:18.872Z,8.85
2024-04-18T03:05:57.392Z,8.81
2024-04-18T03:11:15.630Z,8.81
2024-04-18T03:16:34.968Z,8.79
2024-04-18T03:21:54.191Z,8.76
2024-04-18T03:27:13.627Z,8.76
2024-04-18T03:32:33.460Z,8.75
2024-04-18T03:37:53.282Z,8.72
2024-04-18T03:43:11.768Z,8.72
2024-04-18T03:48:31.117Z,8.68
2024-04-18T03:53:49.742Z,8.67
2024-04-18T03:59:09.114Z,8.64
2024-04-18T04:04:28.844Z,8.6
2024-04-18T04:09:47.942Z,8.54
2024-04-18T04:15:07.580Z,8.5
2024-04-18T04:20:26.928Z,8.51
2024-04-18T04:25:45.609Z,8.47
2024-04-18T04:31:04.552Z,8.42
2024-04-18T04:36:25.506Z,8.41
2024-04-18T04:47:02.787Z,8.34
2024-04-18T04:52:22.338Z,8.31
2024-04-18T05:03:00.891Z,8.26
2024-04-18T05:14:14.745Z,8.24
2024-04-18T05:18:58.322Z,8.18
2024-04-18T05:24:17.706Z,8.18
2024-04-18T05:29:36.975Z,8.14
2024-04-18T05:34:57.232Z,8.14
2024-04-18T05:45:34.670Z,8.1
2024-04-18T05:50:53.793Z,8.1
2024-04-18T05:56:14.308Z,8.1
2024-04-18T06:01:32.210Z,8.1
2024-04-18T06:06:51.302Z,8.1
2024-04-18T06:12:10.688Z,8.13
2024-04-18T06:17:31.049Z,8.14
2024-04-18T06:22:49.384Z,8.16
2024-04-18T06:28:08.731Z,8.18
2024-04-18T06:33:28.428Z,8.22
2024-04-18T06:38:48.395Z,8.24
2024-04-18T06:44:06.653Z,8.27
2024-04-18T06:49:26.512Z,8.27
2024-04-18T06:54:45.263Z,8.31
2024-04-18T07:00:04.890Z,8.34
2024-04-18T07:10:44.350Z,8.41
2024-04-18T07:21:22.490Z,8.43
2024-04-18T07:26:41.412Z,8.47
2024-04-18T07:32:00.202Z,8.5
2024-04-18T07:37:31.393Z,8.54
2024-04-18T07:42:39.929Z,8.58
2024-04-18T07:47:58.923Z,8.6
2024-04-18T07:53:18.634Z,8.67
2024-04-18T07:58:39.245Z,8.71
2024-04-18T08:04:07.965Z,8.78
2024-04-18T08:09:17.934Z,8.79
2024-04-18T08:14:38.026Z,8.88
2024-04-18T08:19:55.404Z,8.91
2024-04-18T08:25:14.649Z,8.96
2024-04-18T08:30:33.925Z,9.05
2024-04-18T08:35:53.135Z,9.05
2024-04-18T08:41:12.381Z,9.08
2024-04-18T08:57:11.095Z,9.26
2024-04-18T09:02:30.511Z,9.33
2024-04-18T09:07:49.739Z,9.42
2024-04-18T09:13:08.983Z,9.46
2024-04-18T09:18:28.904Z,9.56
2024-04-18T09:23:48.319Z,9.6
2024-04-18T09:29:07.944Z,9.66
2024-04-18T09:34:27.735Z,9.68
2024-04-18T09:39:46.798Z,9.71
2024-04-18T09:45:05.449Z,9.76
2024-04-18T09:50:24.749Z,9.8
2024-04-18T09:55:44.231Z,9.83
2024-04-18T10:01:04.143Z,9.85
2024-04-18T10:06:22.731Z,9.87
2024-04-18T10:07:30.897Z,9.93
2024-04-18T10:17:34.086Z,9.93
2024-04-18T10:22:53.186Z,9.95
2024-04-18T10:28:12.458Z,10
2024-04-18T10:33:32.902Z,10.2
2024-04-18T10:38:50.834Z,10.44
2024-04-18T10:44:10.222Z,10.55
2024-04-18T10:49:29.304Z,10.64
2024-04-18T11:01:23.483Z,10.72
2024-04-18T11:10:48.598Z,10.73
2024-04-18T11:16:08.090Z,10.72
2024-04-18T11:26:45.627Z,10.72
2024-04-18T11:32:05.171Z,10.72
2024-04-18T11:42:43.638Z,10.85
2024-04-18T11:48:02.840Z,10.95
2024-04-18T11:58:40.794Z,11.23
2024-04-18T12:04:00.672Z,11.3
2024-04-18T12:09:19.096Z,11.31
2024-04-18T12:14:37.917Z,11.31
2024-04-18T12:19:57.239Z,11.3
2024-04-18T12:25:16.634Z,11.31
2024-04-18T12:30:36.056Z,11.37
2024-04-18T12:35:55.420Z,11.43
2024-04-18T12:41:14.479Z,11.57
2024-04-18T12:46:34.051Z,11.69
2024-04-18T12:51:53.995Z,11.81
2024-04-18T12:57:13.019Z,11.9
2024-04-18T13:02:32.199Z,12.05
2024-04-18T13:07:52.187Z,12.2
2024-04-18T13:13:10.546Z,12.35
2024-04-18T13:23:48.522Z,12.68
2024-04-18T13:29:08.474Z,12.88
2024-04-18T13:34:27.339Z,13
2024-04-18T13:39:45.844Z,13.19
2024-04-18T13:45:05.846Z,13.34
2024-04-18T13:50:24.635Z,13.5
2024-04-18T13:55:43.096Z,13.68
2024-04-18T14:06:22.317Z,13.94
2024-04-18T14:11:41.582Z,14.08
2024-04-18T14:22:20.525Z,14.36
2024-04-18T14:27:39.684Z,14.45
2024-04-18T14:33:00.103Z,14.52
2024-04-18T14:38:17.822Z,14.58
2024-04-18T14:43:37.033Z,14.61
2024-04-18T14:48:56.708Z,14.61
2024-04-18T14:54:15.493Z,14.58
2024-04-18T15:10:13.640Z,14.36
2024-04-18T15:15:31.476Z,14.25
2024-04-18T15:20:50.680Z,14.14
2024-04-18T15:26:09.911Z,14.01
2024-04-18T15:31:29.599Z,13.89
2024-04-18T15:36:49.253Z,13.82
2024-04-18T15:42:08.465Z,13.77
2024-04-18T15:47:28.264Z,13.73
2024-04-18T15:52:47.641Z,13.71
2024-04-18T15:58:07.071Z,13.65
2024-04-18T16:08:45.667Z,13.57
2024-04-18T16:14:05.267Z,13.53
2024-04-18T16:19:25.321Z,13.44
2024-04-18T16:24:43.639Z,13.4
2024-04-18T16:30:02.623Z,13.32
2024-04-18T16:40:41.234Z,13.19
2024-04-18T16:46:00.840Z,13.1
2024-04-18T16:51:19.651Z,13.06
2024-04-18T16:56:39.334Z,12.97
2024-04-18T17:01:58.457Z,12.89
2024-04-18T17:07:18.080Z,12.8
2024-04-18T17:12:37.288Z,12.72
2024-04-18T17:17:56.777Z,12.66
2024-04-18T17:23:15.827Z,12.59
2024-04-18T17:33:54.266Z,12.44
2024-04-18T17:39:13.807Z,12.38
2024-04-18T17:49:51.735Z,12.21
2024-04-18T17:55:11.480Z,12.14
2024-04-18T18:00:30.280Z,12.08
2024-04-18T18:05:49.254Z,11.99
2024-04-18T18:11:08.201Z,11.93
2024-04-18T18:16:27.309Z,11.85
2024-04-18T18:21:47.132Z,11.75
2024-04-18T18:27:05.750Z,11.7
2024-04-18T18:32:25.421Z,11.61
2024-04-18T18:37:53.171Z,11.53
2024-04-18T18:48:22.962Z,11.37
2024-04-18T18:53:42.032Z,11.3
2024-04-18T19:04:20.164Z,11.18
2024-04-18T19:09:39.427Z,11.1
2024-04-18T19:14:58.519Z,11.03
2024-04-18T19:20:17.415Z,10.98
2024-04-18T19:25:38.499Z,10.89
2024-04-18T19:30:55.383Z,10.82
2024-04-18T19:36:14.517Z,10.75
2024-04-18T19:46:52.962Z,10.61
2024-04-18T19:57:31.384Z,10.49
2024-04-18T20:02:51.039Z,10.42
2024-04-18T20:08:10.425Z,10.34
2024-04-18T20:13:29.613Z,10.28
2024-04-18T20:18:49.478Z,10.18
2024-04-18T20:29:27.339Z,10.05
2024-04-18T20:34:46.876Z,10.04
2024-04-18T20:40:06.032Z,9.97
2024-04-18T20:45:26.077Z,9.91
2024-04-18T20:50:44.534Z,9.84
2024-04-18T20:56:04.207Z,9.8
2024-04-18T21:12:01.353Z,9.71
2024-04-18T21:17:20.960Z,9.67
2024-04-18T21:22:39.621Z,9.63
2024-04-18T21:27:59.113Z,9.6
2024-04-18T21:33:18.513Z,9.59
2024-04-18T21:38:46.253Z,9.57
2024-04-18T21:43:57.370Z,9.51
2024-04-18T21:54:36.184Z,9.49
2024-04-18T21:59:55.342Z,9.46
2024-04-18T22:05:14.052Z,9.42
2024-04-18T22:10:33.360Z,9.42
2024-04-18T22:21:13.026Z,9.39
2024-04-18T22:26:32.122Z,9.35
2024-04-18T22:31:51.158Z,9.32
2024-04-18T22:37:11.154Z,9.3
2024-04-18T22:42:30.621Z,9.33
2024-04-18T22:58:29.547Z,9.25
2024-04-18T23:05:03.819Z,9.22
2024-04-18T23:09:06.961Z,9.18
2024-04-18T23:14:26.163Z,9.13
2024-04-18T23:19:45.463Z,9.12
2024-04-18T23:30:24.115Z,9.05
2024-04-18T23:35:42.559Z,9.02
2024-04-18T23:41:02.334Z,9.01
2024-04-18T23:46:21.729Z,9.01
2024-04-18T23:51:41.311Z,8.93
2024-04-18T23:57:01.645Z,8.91
